Eagle City, Oklahoma
Current Conditions -  °F | °C
As of 8:55 AM on Thursday 30 Oct 2014 (Local Time) from KJWG Reporting Station
Clear Clear  
Wind Chill: 56°   Ceiling: Unl
Heat Index: 56°   Visibility: 10mi
Dew Point: 45°   Wind: 5mph
Humidity: 67%   Direction: 260°W
Pressure: 30.14"   Gusts: NA
Location:  35.9036°N, 98.7155°W
Report Text: KJWG 301355Z AUTO 26004KT 10SM CLR 13/07 A3014 RMK AO2 T01340073
Loading
Personal Weather Stations






























Interactive Weather Map
Tropical Storm Tracking
New forecast layout! Learn more

10-Day Weather Forecast

Advertisements
Track Severe Weather on mobile